Time;durP1;ratioP1;P1;durP2;ratioP2;P2;SDS_P1;SDS_P2;PMS_P1;PMS_P2;Temp;Humidity;BMP_temperature;BMP_pressure;BME280_temperature;BME280_humidity;BME280_pressure;Samples;Min_cycle;Max_cycle;Signal;HPM_P1;HPM_P2
2023/06/08 00:00:50;;;;;;;1999.90;999.90;;;21.80;99.90;;;;;;5033460;28;20037;-80
2023/06/08 00:03:18;;;;;;;1999.90;999.90;;;21.80;99.90;;;;;;5031342;28;20062;-79
2023/06/08 00:05:48;;;;;;;1999.90;999.90;;;21.80;99.90;;;;;;5031925;28;20481;-79
2023/06/08 00:08:14;;;;;;;1999.90;999.90;;;21.70;99.90;;;;;;5036781;28;20504;-79
2023/06/08 00:10:44;;;;;;;1999.90;999.90;;;21.70;99.90;;;;;;5037710;28;20503;-80
2023/06/08 00:13:10;;;;;;;1999.90;999.90;;;21.70;99.90;;;;;;5025042;28;20018;-79
2023/06/08 00:15:36;;;;;;;1999.90;999.90;;;21.80;99.90;;;;;;5016280;28;20105;-81
2023/06/08 00:18:02;;;;;;;1999.90;999.90;;;21.80;99.90;;;;;;5015043;28;20390;-79
2023/06/08 00:20:28;;;;;;;1999.90;999.90;;;21.80;99.90;;;;;;5036653;28;20048;-80
2023/06/08 00:22:54;;;;;;;1999.90;999.90;;;21.90;99.90;;;;;;5037619;28;20082;-80
2023/06/08 00:25:20;;;;;;;1999.90;999.90;;;21.90;99.90;;;;;;5037312;28;20029;-79
2023/06/08 00:27:46;;;;;;;1999.90;999.90;;;21.90;99.90;;;;;;5037656;28;20028;-80
2023/06/08 00:30:13;;;;;;;1999.90;999.90;;;21.80;99.90;;;;;;5037320;28;20030;-79
2023/06/08 00:32:39;;;;;;;1999.90;999.90;;;21.80;99.90;;;;;;5037106;28;20109;-79
2023/06/08 00:35:06;;;;;;;1999.90;999.90;;;21.80;99.90;;;;;;5019907;28;20083;-79
2023/06/08 00:37:31;;;;;;;1999.90;999.90;;;21.80;99.90;;;;;;5037751;28;20026;-79
2023/06/08 00:39:57;;;;;;;1999.90;999.90;;;21.80;99.90;;;;;;5036726;28;20106;-79
2023/06/08 00:42:23;;;;;;;1999.90;999.90;;;21.80;99.90;;;;;;5037217;28;20029;-80
2023/06/08 00:44:48;;;;;;;1999.90;999.90;;;21.80;99.90;;;;;;5037250;28;20034;-79
2023/06/08 00:47:15;;;;;;;1999.90;999.90;;;21.80;99.90;;;;;;5019520;28;20029;-79
2023/06/08 00:49:41;;;;;;;1999.90;999.90;;;21.80;99.90;;;;;;5037224;28;20511;-79
2023/06/08 00:52:08;;;;;;;1999.90;999.90;;;21.80;99.90;;;;;;5036821;28;20045;-79
2023/06/08 00:54:34;;;;;;;1999.90;999.90;;;21.80;99.90;;;;;;5036988;28;20037;-79
2023/06/08 00:57:02;;;;;;;1999.90;999.90;;;21.80;99.90;;;;;;5037252;28;20029;-80
2023/06/08 00:59:32;;;;;;;1999.90;999.90;;;21.80;99.90;;;;;;5037046;28;20021;-80
2023/06/08 01:01:58;;;;;;;1999.90;999.90;;;21.80;99.90;;;;;;5034094;28;20037;-79
2023/06/08 01:04:25;;;;;;;1999.90;999.90;;;21.70;99.90;;;;;;5036592;28;20120;-79
2023/06/08 01:07:14;;;;;;;1999.90;999.90;;;21.70;99.90;;;;;;5037468;28;20026;-79
2023/06/08 01:10:29;;;;;;;1999.90;999.90;;;21.70;99.90;;;;;;5023998;28;20108;-79
2023/06/08 01:13:18;;;;;;;1999.90;999.90;;;21.80;99.90;;;;;;4975705;28;20031;-79
2023/06/08 01:15:50;;;;;;;1999.90;999.90;;;21.70;99.90;;;;;;5014356;28;20037;-79
2023/06/08 01:18:18;;;;;;;1999.90;999.90;;;21.70;99.90;;;;;;5030860;28;20104;-80
2023/06/08 01:20:44;;;;;;;1999.90;999.90;;;21.60;99.90;;;;;;5036893;28;20034;-79
2023/06/08 01:23:34;;;;;;;1999.90;999.90;;;21.70;99.90;;;;;;5036689;28;20037;-79
2023/06/08 01:26:02;;;;;;;1999.90;999.90;;;21.70;99.90;;;;;;5036757;28;20036;-80
2023/06/08 01:28:30;;;;;;;1999.90;999.90;;;21.70;99.90;;;;;;5036060;28;20488;-79
2023/06/08 01:30:57;;;;;;;1999.90;999.90;;;21.70;99.90;;;;;;5036060;28;20021;-79
2023/06/08 01:33:27;;;;;;;1999.90;999.90;;;21.70;99.90;;;;;;5036402;28;20013;-79
2023/06/08 01:36:04;;;;;;;1999.90;999.90;;;21.70;99.90;;;;;;5018360;28;20138;-79
2023/06/08 01:38:37;;;;;;;1999.90;999.90;;;21.70;99.90;;;;;;5036155;28;20033;-79
2023/06/08 01:41:09;;;;;;;1999.90;999.90;;;21.70;99.90;;;;;;5035443;28;20037;-79
2023/06/08 01:43:38;;;;;;;1999.90;999.90;;;21.60;99.90;;;;;;5016411;28;20029;-80
2023/06/08 01:46:07;;;;;;;1999.90;999.90;;;21.60;99.90;;;;;;5034850;28;20036;-79
2023/06/08 01:48:35;;;;;;;1999.90;999.90;;;21.60;99.90;;;;;;5036113;28;20022;-80
2023/06/08 01:51:01;;;;;;;1999.90;999.90;;;21.50;99.90;;;;;;5035792;28;20021;-79
2023/06/08 01:53:26;;;;;;;1999.90;999.90;;;21.50;99.90;;;;;;5035963;28;20029;-79
2023/06/08 01:55:52;;;;;;;1999.90;999.90;;;21.40;99.90;;;;;;5017350;28;20025;-80
2023/06/08 01:58:18;;;;;;;1999.90;999.90;;;21.40;99.90;;;;;;5034689;28;20021;-80
2023/06/08 02:00:43;;;;;;;1999.90;999.90;;;21.30;99.90;;;;;;5034516;28;20021;-79
2023/06/08 02:03:09;;;;;;;1999.90;999.90;;;21.20;99.90;;;;;;5016886;28;20104;-79
2023/06/08 02:05:34;;;;;;;1999.90;999.90;;;21.20;99.90;;;;;;5034327;28;20096;-79
2023/06/08 02:08:00;;;;;;;1999.90;999.90;;;21.20;99.90;;;;;;5034650;28;20021;-79
2023/06/08 02:10:26;;;;;;;1999.90;999.90;;;21.20;99.90;;;;;;5034647;28;20025;-79
2023/06/08 02:12:52;;;;;;;1999.90;999.90;;;21.20;99.90;;;;;;5034933;28;20029;-79
2023/06/08 02:15:18;;;;;;;1999.90;999.90;;;21.10;99.90;;;;;;5034576;28;20025;-79
2023/06/08 02:17:43;;;;;;;1999.90;999.90;;;21.10;99.90;;;;;;5034385;28;20028;-79
2023/06/08 02:20:09;;;;;;;1999.90;999.90;;;21.00;99.90;;;;;;5033518;28;20020;-79
2023/06/08 02:22:36;;;;;;;1999.90;999.90;;;21.00;99.90;;;;;;5034297;28;20061;-79
2023/06/08 02:25:04;;;;;;;1999.90;999.90;;;20.80;99.90;;;;;;5034056;28;20030;-79
2023/06/08 02:27:29;;;;;;;1999.90;999.90;;;20.80;99.90;;;;;;5033866;28;20400;-79
2023/06/08 02:29:56;;;;;;;1999.90;999.90;;;20.70;99.90;;;;;;5033912;28;20033;-79
2023/06/08 02:32:22;;;;;;;1999.90;999.90;;;20.70;99.90;;;;;;5034202;28;20025;-79
2023/06/08 02:34:55;;;;;;;1999.90;999.90;;;20.60;99.90;;;;;;5016028;28;20072;-79
2023/06/08 02:37:24;;;;;;;1999.90;999.90;;;20.60;99.90;;;;;;5034218;28;20025;-79
2023/06/08 02:39:51;;;;;;;1999.90;999.90;;;20.50;99.90;;;;;;5034147;28;20045;-79
2023/06/08 02:42:18;;;;;;;1999.90;999.90;;;20.50;99.90;;;;;;5033515;28;20079;-79
2023/06/08 02:44:45;;;;;;;1999.90;999.90;;;20.50;99.90;;;;;;5033835;28;20427;-79
2023/06/08 02:47:11;;;;;;;1999.90;999.90;;;20.50;99.90;;;;;;5033964;28;20397;-80
2023/06/08 02:49:36;;;;;;;1999.90;999.90;;;20.50;99.90;;;;;;5033671;28;20025;-79
2023/06/08 02:52:02;;;;;;;1999.90;999.90;;;20.60;99.90;;;;;;5033449;28;20021;-79
2023/06/08 02:54:28;;;;;;;1999.90;999.90;;;20.50;99.90;;;;;;5033761;28;20021;-80
2023/06/08 02:56:53;;;;;;;1999.90;999.90;;;20.50;99.90;;;;;;5033347;28;20101;-79
2023/06/08 02:59:19;;;;;;;1999.90;999.90;;;20.60;99.90;;;;;;5033609;28;20040;-80
2023/06/08 03:01:53;;;;;;;1999.90;999.90;;;20.60;99.90;;;;;;5033733;28;20397;-80
2023/06/08 03:04:20;;;;;;;1999.90;999.90;;;20.60;99.90;;;;;;5033442;28;20033;-79
2023/06/08 03:06:46;;;;;;;1999.90;999.90;;;20.60;99.90;;;;;;5033327;28;20029;-79
2023/06/08 03:09:12;;;;;;;1999.90;999.90;;;20.60;99.90;;;;;;5032953;28;20030;-80
2023/06/08 03:11:38;;;;;;;1999.90;999.90;;;20.60;99.90;;;;;;5032935;28;20108;-80
2023/06/08 03:14:07;;;;;;;1999.90;999.90;;;20.60;99.90;;;;;;5033322;28;20081;-79
2023/06/08 03:16:33;;;;;;;1999.90;999.90;;;20.60;99.90;;;;;;5033573;28;20032;-80
2023/06/08 03:18:59;;;;;;;1999.90;999.90;;;20.60;99.90;;;;;;5022829;28;20504;-80
2023/06/08 03:21:28;;;;;;;1999.90;999.90;;;20.60;99.90;;;;;;5032811;28;20477;-80
2023/06/08 03:23:55;;;;;;;1999.90;999.90;;;20.50;99.90;;;;;;5033444;28;20071;-79
2023/06/08 03:26:21;;;;;;;1999.90;999.90;;;20.50;99.90;;;;;;5016047;28;20029;-79
2023/06/08 03:28:47;;;;;;;1999.90;999.90;;;20.50;99.90;;;;;;5033130;28;20025;-80
2023/06/08 03:31:13;;;;;;;1999.90;999.90;;;20.50;99.90;;;;;;5033588;28;20101;-80
2023/06/08 03:33:39;;;;;;;1999.90;999.90;;;20.50;99.90;;;;;;5033278;28;20041;-80
2023/06/08 03:36:06;;;;;;;1999.90;999.90;;;20.50;99.90;;;;;;5000738;28;20133;-79
2023/06/08 03:38:31;;;;;;;1999.90;999.90;;;20.50;99.90;;;;;;4993569;28;20093;-80
2023/06/08 03:40:57;;;;;;;1999.90;999.90;;;20.40;99.90;;;;;;4993757;28;20481;-80
2023/06/08 03:43:23;;;;;;;1999.90;999.90;;;20.30;99.90;;;;;;4998013;28;20490;-79
2023/06/08 03:45:49;;;;;;;1999.90;999.90;;;20.20;99.90;;;;;;4997235;28;20026;-80
2023/06/08 03:48:15;;;;;;;1999.90;999.90;;;20.20;99.90;;;;;;4997873;28;20097;-80
2023/06/08 03:50:43;;;;;;;1999.90;999.90;;;20.10;99.90;;;;;;4997526;28;20101;-79
2023/06/08 03:53:12;;;;;;;1999.90;999.90;;;20.10;99.90;;;;;;4997921;28;20014;-80
2023/06/08 03:55:38;;;;;;;1999.90;999.90;;;20.00;99.90;;;;;;4997656;28;20699;-80
2023/06/08 03:58:04;;;;;;;1999.90;999.90;;;20.00;99.90;;;;;;4997382;28;20022;-80
2023/06/08 04:00:29;;;;;;;1999.90;999.90;;;20.00;99.90;;;;;;4997459;28;20117;-79
2023/06/08 04:02:56;;;;;;;1999.90;999.90;;;20.00;99.90;;;;;;4997158;28;20022;-80
2023/06/08 04:05:22;;;;;;;1999.90;999.90;;;20.00;99.90;;;;;;4996992;28;20386;-80
2023/06/08 04:07:48;;;;;;;1999.90;999.90;;;20.00;99.90;;;;;;4996280;28;20034;-80
2023/06/08 04:10:14;;;;;;;1999.90;999.90;;;20.10;99.90;;;;;;4995530;28;20081;-80
2023/06/08 04:12:40;;;;;;;1999.90;999.90;;;20.10;99.90;;;;;;4997073;28;20019;-80
2023/06/08 04:15:07;;;;;;;1999.90;999.90;;;20.20;99.90;;;;;;4997187;28;20031;-80
2023/06/08 04:17:33;;;;;;;1999.90;999.90;;;20.20;99.90;;;;;;4995964;28;20015;-80
2023/06/08 04:19:58;;;;;;;1999.90;999.90;;;20.30;99.90;;;;;;4993144;28;20105;-80
2023/06/08 04:22:24;;;;;;;1999.90;999.90;;;20.30;99.90;;;;;;4997151;28;20026;-79
2023/06/08 04:24:50;;;;;;;1999.90;999.90;;;20.40;99.90;;;;;;4996818;28;20489;-80
2023/06/08 04:27:16;;;;;;;1999.90;999.90;;;20.50;99.90;;;;;;4997058;28;20030;-80
2023/06/08 04:29:43;;;;;;;1999.90;999.90;;;20.50;99.90;;;;;;4979107;28;20034;-80
2023/06/08 04:32:08;;;;;;;1999.90;999.90;;;20.60;99.90;;;;;;4996702;28;20027;-80
2023/06/08 04:34:35;;;;;;;1999.90;999.90;;;20.60;99.90;;;;;;4996454;28;20512;-80
2023/06/08 04:37:00;;;;;;;1999.90;999.90;;;20.70;99.90;;;;;;5033867;28;20458;-80
2023/06/08 04:39:26;;;;;;;1999.90;999.90;;;20.70;99.90;;;;;;5035730;28;20129;-80
2023/06/08 04:41:55;;;;;;;1999.90;999.90;;;20.80;99.90;;;;;;5035920;28;20032;-80
2023/06/08 04:44:21;;;;;;;1999.90;999.90;;;20.80;99.90;;;;;;5035613;28;20029;-80
2023/06/08 04:46:46;;;;;;;1999.90;999.90;;;20.80;99.90;;;;;;5035533;28;20024;-80
2023/06/08 04:49:14;;;;;;;1999.90;999.90;;;20.80;99.90;;;;;;5035378;28;20477;-80
2023/06/08 04:51:46;;;;;;;1999.90;999.90;;;20.90;99.90;;;;;;5035595;28;20136;-80
2023/06/08 04:54:13;;;;;;;1999.90;999.90;;;20.90;99.90;;;;;;5034315;28;20068;-80
2023/06/08 04:56:42;;;;;;;1999.90;999.90;;;20.90;99.90;;;;;;5034335;28;20013;-80
2023/06/08 04:59:11;;;;;;;1999.90;999.90;;;20.90;99.90;;;;;;5002246;28;20117;-80
2023/06/08 05:01:37;;;;;;;1999.90;999.90;;;20.90;99.90;;;;;;5015495;28;20052;-80
2023/06/08 05:04:07;;;;;;;1999.90;999.90;;;20.90;99.90;;;;;;5011633;28;20481;-80
2023/06/08 05:06:33;;;;;;;1999.90;999.90;;;20.90;99.90;;;;;;5035205;28;20444;-79
2023/06/08 05:08:58;;;;;;;1999.90;999.90;;;20.80;99.90;;;;;;5034903;28;20025;-79
2023/06/08 05:11:24;;;;;;;1999.90;999.90;;;20.80;99.90;;;;;;5034805;28;20374;-80
2023/06/08 05:13:50;;;;;;;1999.90;999.90;;;20.80;99.90;;;;;;5016730;28;20060;-80
2023/06/08 05:16:15;;;;;;;1999.90;999.90;;;20.80;99.90;;;;;;5015325;28;20042;-80
2023/06/08 05:18:41;;;;;;;1999.90;999.90;;;20.80;99.90;;;;;;5015047;28;20572;-80
2023/06/08 05:21:06;;;;;;;1999.90;999.90;;;20.80;99.90;;;;;;5014414;28;20405;-80
2023/06/08 05:23:32;;;;;;;1999.90;999.90;;;20.90;99.90;;;;;;5021968;28;20468;-80
2023/06/08 05:25:58;;;;;;;1999.90;999.90;;;20.90;99.90;;;;;;5016886;28;20029;-80
2023/06/08 05:28:23;;;;;;;1999.90;999.90;;;21.00;99.90;;;;;;5016723;28;20029;-80
2023/06/08 05:30:49;;;;;;;1999.90;999.90;;;21.00;99.90;;;;;;5033698;28;20018;-80
2023/06/08 05:33:14;;;;;;;1999.90;999.90;;;21.00;99.90;;;;;;5026714;28;20026;-79
2023/06/08 05:35:40;;;;;;;1999.90;999.90;;;21.00;99.90;;;;;;5033173;28;20046;-79
2023/06/08 05:38:06;;;;;;;1999.90;999.90;;;21.10;99.90;;;;;;5030729;28;20036;-81
2023/06/08 05:40:32;;;;;;;1999.90;999.90;;;21.10;99.90;;;;;;5031202;28;20119;-81
2023/06/08 05:42:57;;;;;;;1999.90;999.90;;;21.20;99.90;;;;;;5033798;28;20033;-81
2023/06/08 05:45:23;;;;;;;1999.90;999.90;;;21.30;99.90;;;;;;5032383;28;20040;-81
2023/06/08 05:47:48;;;;;;;1999.90;999.90;;;21.40;99.90;;;;;;5033838;28;20087;-81
2023/06/08 05:50:14;;;;;;;1999.90;999.90;;;21.50;99.90;;;;;;5031991;28;20143;-81
2023/06/08 05:52:40;;;;;;;1999.90;999.90;;;21.60;99.90;;;;;;5033876;28;20026;-81
2023/06/08 05:55:06;;;;;;;1999.90;999.90;;;21.70;99.90;;;;;;5031183;28;20031;-82
2023/06/08 05:57:31;;;;;;;1999.90;999.90;;;21.90;99.90;;;;;;5033402;28;20394;-82
2023/06/08 05:59:57;;;;;;;1999.90;999.90;;;22.10;99.90;;;;;;5032939;28;20077;-82
2023/06/08 06:02:22;;;;;;;1999.90;999.90;;;22.20;99.90;;;;;;5020824;28;20461;-81
2023/06/08 06:04:48;;;;;;;1999.90;999.90;;;22.20;99.90;;;;;;5033241;28;20037;-81
2023/06/08 06:07:14;;;;;;;1999.90;999.90;;;22.20;99.90;;;;;;5033785;28;20029;-81
2023/06/08 06:09:39;;;;;;;1999.90;999.90;;;22.20;99.90;;;;;;5028446;28;20094;-81
2023/06/08 06:12:07;;;;;;;1999.90;999.90;;;22.20;99.90;;;;;;5031693;28;20469;-80
2023/06/08 06:14:41;;;;;;;1999.90;999.90;;;22.20;99.90;;;;;;5011956;28;20029;-80
2023/06/08 06:17:08;;;;;;;1999.90;999.90;;;22.30;99.90;;;;;;5030517;28;20037;-81
2023/06/08 06:19:37;;;;;;;1999.90;999.90;;;22.30;99.90;;;;;;5032151;28;20033;-80
2023/06/08 06:22:08;;;;;;;1999.90;999.90;;;22.40;99.90;;;;;;5031259;28;20025;-81
2023/06/08 06:24:35;;;;;;;1999.90;999.90;;;22.30;99.90;;;;;;5028082;28;20033;-79
2023/06/08 06:27:01;;;;;;;1999.90;999.90;;;22.40;99.90;;;;;;5027868;28;20033;-80
2023/06/08 06:29:27;;;;;;;1999.90;999.90;;;22.50;99.90;;;;;;5024995;28;20025;-80
2023/06/08 06:31:53;;;;;;;1999.90;999.90;;;22.60;99.90;;;;;;5031769;28;20082;-80
2023/06/08 06:34:19;;;;;;;1999.90;999.90;;;22.90;99.90;;;;;;5034177;28;20033;-80
2023/06/08 06:36:45;;;;;;;1999.90;999.90;;;23.20;99.90;;;;;;5036830;28;20054;-80
2023/06/08 06:39:12;;;;;;;1999.90;999.90;;;23.30;99.90;;;;;;5034336;28;20033;-80
2023/06/08 06:41:38;;;;;;;1999.90;999.90;;;23.30;99.90;;;;;;5031892;28;20120;-81
2023/06/08 06:44:03;;;;;;;1999.90;999.90;;;23.40;99.90;;;;;;5030512;28;20033;-81
2023/06/08 06:46:29;;;;;;;1999.90;999.90;;;23.30;99.90;;;;;;5026904;28;20033;-80
2023/06/08 06:48:55;;;;;;;1999.90;999.90;;;23.50;99.90;;;;;;5026971;28;20092;-79
2023/06/08 06:51:21;;;;;;;1999.90;999.90;;;23.40;99.90;;;;;;5026311;28;20028;-79
2023/06/08 06:53:46;;;;;;;1999.90;999.90;;;23.40;99.90;;;;;;5027102;28;20502;-80
2023/06/08 06:56:13;;;;;;;1999.90;999.90;;;23.30;99.90;;;;;;5024320;28;20021;-82
2023/06/08 06:58:44;;;;;;;1999.90;999.90;;;23.30;99.90;;;;;;5031179;28;20029;-80
2023/06/08 07:01:11;;;;;;;1999.90;999.90;;;23.50;99.90;;;;;;5027425;28;20022;-80
2023/06/08 07:03:42;;;;;;;1999.90;999.90;;;23.90;99.90;;;;;;5029841;28;20033;-80
2023/06/08 07:06:09;;;;;;;1999.90;999.90;;;24.00;99.90;;;;;;5030424;28;20104;-82
2023/06/08 07:08:35;;;;;;;1999.90;999.90;;;24.00;99.90;;;;;;5026950;28;20036;-79
2023/06/08 07:11:01;;;;;;;1999.90;999.90;;;24.00;99.90;;;;;;5028950;28;20067;-83
2023/06/08 07:13:27;;;;;;;1999.90;999.90;;;24.00;99.90;;;;;;5017596;28;20095;-80
2023/06/08 07:15:53;;;;;;;1999.90;999.90;;;24.30;99.90;;;;;;5020277;28;20494;-79
2023/06/08 07:18:19;;;;;;;1999.90;999.90;;;24.60;99.90;;;;;;5019327;28;20029;-81
2023/06/08 07:20:45;;;;;;;1999.90;999.90;;;24.80;99.90;;;;;;5028763;28;20519;-80
2023/06/08 07:23:11;;;;;;;1999.90;999.90;;;25.00;99.90;;;;;;5022903;28;20106;-80
2023/06/08 07:25:39;;;;;;;1999.90;999.90;;;25.10;99.90;;;;;;5024732;28;20028;-81
2023/06/08 07:28:05;;;;;;;1999.90;999.90;;;25.20;99.90;;;;;;5024530;28;20030;-80
2023/06/08 07:30:31;;;;;;;1999.90;999.90;;;25.40;99.90;;;;;;5022609;28;20033;-79
2023/06/08 07:33:01;;;;;;;1999.90;999.90;;;26.10;99.90;;;;;;5029361;28;20048;-82
2023/06/08 07:35:27;;;;;;;1999.90;999.90;;;26.30;99.90;;;;;;5029558;28;20040;-81
2023/06/08 07:37:53;;;;;;;1999.90;999.90;;;25.60;99.90;;;;;;5028512;28;20041;-79
2023/06/08 07:40:19;;;;;;;1999.90;999.90;;;25.30;99.90;;;;;;5028961;28;20112;-80
2023/06/08 07:42:45;;;;;;;1999.90;999.90;;;25.10;99.90;;;;;;5031294;28;20508;-79
2023/06/08 07:45:11;;;;;;;1999.90;999.90;;;25.40;99.90;;;;;;5029434;28;20099;-78
2023/06/08 07:47:38;;;;;;;1999.90;999.90;;;25.70;99.90;;;;;;5027253;28;20036;-78
2023/06/08 07:50:05;;;;;;;1999.90;999.90;;;25.50;99.90;;;;;;5027769;28;20029;-81
2023/06/08 07:52:31;;;;;;;1999.90;999.90;;;25.60;99.90;;;;;;5027063;28;20032;-79
2023/06/08 07:54:57;;;;;;;1999.90;999.90;;;25.70;99.90;;;;;;5028601;28;20025;-79
2023/06/08 07:57:23;;;;;;;1999.90;999.90;;;26.60;99.90;;;;;;5028463;28;20034;-79
2023/06/08 07:59:48;;;;;;;1999.90;999.90;;;28.50;99.90;;;;;;5027554;28;20558;-80
2023/06/08 08:02:14;;;;;;;1999.90;999.90;;;29.50;99.90;;;;;;5027644;28;20037;-81
2023/06/08 08:04:40;;;;;;;1999.90;999.90;;;27.90;99.90;;;;;;5029592;28;20065;-79
2023/06/08 08:07:05;;;;;;;1999.90;999.90;;;26.60;99.90;;;;;;5021570;28;20029;-79
2023/06/08 08:09:31;;;;;;;1999.90;999.90;;;26.30;99.90;;;;;;5024508;28;20116;-77
2023/06/08 08:11:57;;;;;;;1999.90;999.90;;;25.90;99.90;;;;;;5026161;28;20036;-79
2023/06/08 08:14:22;;;;;;;1999.90;999.90;;;27.10;99.90;;;;;;5041141;28;20455;-79
2023/06/08 08:16:48;;;;;;;1999.90;999.90;;;29.70;99.90;;;;;;5029897;28;20037;-79
2023/06/08 08:19:13;;;;;;;1999.90;999.90;;;30.20;99.90;;;;;;5030162;28;20026;-80
2023/06/08 08:21:39;;;;;;;1999.90;999.90;;;30.10;99.90;;;;;;5028160;28;20029;-80
2023/06/08 08:24:05;;;;;;;1999.90;999.90;;;31.40;99.90;;;;;;5022974;28;20075;-81
2023/06/08 08:26:31;;;;;;;1999.90;999.90;;;33.40;99.90;;;;;;5031839;28;20076;-83
2023/06/08 08:28:57;;;;;;;1999.90;999.90;;;33.60;99.70;;;;;;5024578;28;20029;-80
2023/06/08 08:31:24;;;;;;;1999.90;999.90;;;32.90;99.90;;;;;;5026263;28;20037;-80
2023/06/08 08:33:50;;;;;;;1999.90;999.90;;;32.90;99.90;;;;;;5017557;28;20777;-83
2023/06/08 08:36:16;;;;;;;1999.90;999.90;;;33.10;99.90;;;;;;5037107;28;20053;-81
2023/06/08 08:38:42;;;;;;;1999.90;999.90;;;34.60;98.70;;;;;;5036379;28;20025;-80
2023/06/08 08:41:12;;;;;;;1999.90;999.90;;;35.60;97.90;;;;;;5013966;28;20030;-82
2023/06/08 08:43:52;;;;;;;1999.90;999.90;;;34.50;97.40;;;;;;5033136;28;20025;-84
2023/06/08 08:46:22;;;;;;;1999.90;999.90;;;34.20;98.00;;;;;;5041235;28;20030;-82
2023/06/08 08:48:53;;;;;;;1999.90;999.90;;;34.30;97.80;;;;;;5030085;28;20037;-80
2023/06/08 08:51:19;;;;;;;1999.90;999.90;;;34.10;97.70;;;;;;5016910;28;20049;-81
2023/06/08 08:53:50;;;;;;;1999.90;999.90;;;33.80;98.10;;;;;;5022139;28;20049;-85
2023/06/08 08:56:20;;;;;;;1999.90;999.90;;;31.70;99.30;;;;;;5033068;28;20033;-85
2023/06/08 08:58:50;;;;;;;1999.90;999.90;;;31.70;99.90;;;;;;5032992;28;20647;-84
2023/06/08 09:01:20;;;;;;;1999.90;999.90;;;32.30;99.60;;;;;;5047729;28;20037;-84
2023/06/08 09:03:46;;;;;;;1999.90;999.90;;;32.10;99.70;;;;;;5033549;28;20044;-80
2023/06/08 09:06:12;;;;;;;1999.90;999.90;;;31.80;99.90;;;;;;5036532;28;20052;-82
2023/06/08 09:08:38;;;;;;;1999.90;999.90;;;31.50;99.90;;;;;;5039091;28;20044;-79
2023/06/08 09:11:09;;;;;;;1999.90;999.90;;;31.40;99.90;;;;;;5024899;28;20474;-81
2023/06/08 09:13:35;;;;;;;1999.90;999.90;;;31.10;99.90;;;;;;5024309;28;20018;-82
2023/06/08 09:16:14;;;;;;;1999.90;999.90;;;31.70;99.90;;;;;;5032342;28;20026;-78
2023/06/08 09:18:41;;;;;;;1999.90;999.90;;;32.50;99.30;;;;;;5030526;28;20020;-79
2023/06/08 09:21:21;;;;;;;1999.90;999.90;;;31.40;99.60;;;;;;5026089;28;20034;-78
2023/06/08 09:24:05;;;;;;;1999.90;999.90;;;30.90;99.90;;;;;;5028561;28;20021;-80
2023/06/08 09:26:32;;;;;;;1999.90;999.90;;;30.70;99.90;;;;;;5026951;28;20022;-81
2023/06/08 09:29:01;;;;;;;1999.90;999.90;;;30.20;99.90;;;;;;5031997;28;20026;-81
2023/06/08 09:31:29;;;;;;;1999.90;999.90;;;29.40;99.90;;;;;;5030712;28;20025;-81
2023/06/08 09:34:09;;;;;;;1999.90;999.90;;;29.30;99.90;;;;;;5029751;28;20075;-81
2023/06/08 09:36:37;;;;;;;1999.90;999.90;;;30.00;99.90;;;;;;5026278;28;20049;-82
2023/06/08 09:39:07;;;;;;;1999.90;999.90;;;30.60;99.90;;;;;;5013709;28;20022;-84
2023/06/08 09:41:33;;;;;;;1999.90;999.90;;;30.80;99.90;;;;;;5038653;28;20125;-82
2023/06/08 09:44:00;;;;;;;1999.90;999.90;;;29.90;99.90;;;;;;5025868;28;20033;-85
2023/06/08 09:46:32;;;;;;;1999.90;999.90;;;29.90;99.90;;;;;;5029636;28;20487;-81
2023/06/08 09:48:58;;;;;;;1999.90;999.90;;;29.80;99.90;;;;;;5022818;28;20083;-79
2023/06/08 09:51:25;;;;;;;1999.90;999.90;;;30.10;99.90;;;;;;5017781;28;20025;-80
2023/06/08 09:53:58;;;;;;;1999.90;999.90;;;30.60;99.90;;;;;;5027362;28;20044;-80
2023/06/08 09:56:26;;;;;;;1999.90;999.90;;;31.20;99.90;;;;;;5014023;28;20408;-80
2023/06/08 09:58:56;;;;;;;1999.90;999.90;;;31.60;99.90;;;;;;5031006;28;20026;-81
2023/06/08 10:01:35;;;;;;;1999.90;999.90;;;31.50;99.80;;;;;;5031531;28;20033;-84
2023/06/08 10:04:11;;;;;;;1999.90;999.90;;;31.50;99.90;;;;;;5030112;28;20068;-82
2023/06/08 10:06:37;;;;;;;1999.90;999.90;;;31.00;99.90;;;;;;5028959;28;20037;-83
2023/06/08 10:09:05;;;;;;;1999.90;999.90;;;30.70;99.90;;;;;;5027703;28;20061;-83
2023/06/08 10:11:32;;;;;;;1999.90;999.90;;;30.20;99.90;;;;;;5029295;28;20055;-83
2023/06/08 10:13:58;;;;;;;1999.90;999.90;;;29.50;99.90;;;;;;5026902;28;20029;-85
2023/06/08 10:16:25;;;;;;;1999.90;999.90;;;29.20;99.90;;;;;;5027140;28;20034;-84
2023/06/08 10:18:51;;;;;;;1999.90;999.90;;;29.30;99.90;;;;;;5029360;28;20112;-84
2023/06/08 10:21:17;;;;;;;1999.90;999.90;;;29.90;99.90;;;;;;5030345;28;20044;-84
2023/06/08 10:23:43;;;;;;;1999.90;999.90;;;30.90;99.90;;;;;;5026841;28;20026;-82
2023/06/08 10:26:10;;;;;;;1999.90;999.90;;;31.00;99.90;;;;;;5021318;28;20519;-88
2023/06/08 10:28:35;;;;;;;1999.90;999.90;;;30.80;99.90;;;;;;5026369;28;20259;-83
2023/06/08 10:31:30;;;;;;;1999.90;999.90;;;31.70;99.90;;;;;;5020767;28;20026;-84
2023/06/08 10:33:58;;;;;;;1999.90;999.90;;;33.20;98.50;;;;;;5029827;28;20408;-84
2023/06/08 10:36:36;;;;;;;1999.90;999.90;;;35.60;96.10;;;;;;5034119;28;20041;-83
2023/06/08 10:39:12;;;;;;;1999.90;999.90;;;35.30;94.60;;;;;;5023767;28;20043;-83
2023/06/08 10:41:59;;;;;;;1999.90;999.90;;;33.70;96.50;;;;;;5028408;28;20049;-80
2023/06/08 10:44:32;;;;;;;1999.90;999.90;;;33.50;96.80;;;;;;5025638;28;20037;-82
2023/06/08 10:47:08;;;;;;;1999.90;999.90;;;34.50;96.00;;;;;;5025946;28;20119;-81
2023/06/08 10:49:39;;;;;;;1999.90;999.90;;;34.00;96.50;;;;;;5024653;28;20036;-82
2023/06/08 10:52:07;;;;;;;1999.90;999.90;;;35.70;96.00;;;;;;5018190;28;20112;-81
2023/06/08 10:54:58;;;;;;;1999.90;999.90;;;35.90;93.90;;;;;;5027160;28;20075;-82
2023/06/08 10:57:42;;;;;;;1999.90;999.90;;;36.70;93.00;;;;;;5024606;28;20064;-81
2023/06/08 11:00:26;;;;;;;1999.90;999.90;;;35.60;93.00;;;;;;5019573;28;20071;-80
2023/06/08 11:02:57;;;;;;;1999.90;999.90;;;33.90;94.80;;;;;;5022281;28;20085;-83
2023/06/08 11:05:23;;;;;;;1999.90;999.90;;;33.10;96.00;;;;;;5035103;28;20021;-81
2023/06/08 11:07:50;;;;;;;1999.90;999.90;;;33.70;96.60;;;;;;5026152;28;20026;-82
2023/06/08 11:10:16;;;;;;;1999.90;999.90;;;33.70;95.10;;;;;;5027318;28;20065;-81
2023/06/08 11:12:41;;;;;;;1999.90;999.90;;;33.30;96.20;;;;;;5031310;28;20083;-82
2023/06/08 11:15:07;;;;;;;1999.90;999.90;;;32.90;96.60;;;;;;5027559;28;20515;-82
2023/06/08 11:17:43;;;;;;;1999.90;999.90;;;33.00;97.00;;;;;;5022983;28;20392;-81
2023/06/08 11:20:09;;;;;;;1999.90;999.90;;;33.80;95.50;;;;;;5018609;28;20120;-82
2023/06/08 11:22:38;;;;;;;1999.90;999.90;;;34.90;94.10;;;;;;5028020;28;20415;-80
2023/06/08 11:25:05;;;;;;;1999.90;999.90;;;35.30;93.50;;;;;;5029157;28;20388;-80
2023/06/08 11:27:31;;;;;;;1999.90;999.90;;;34.10;93.40;;;;;;5022902;28;20044;-82
2023/06/08 11:29:58;;;;;;;1999.90;999.90;;;33.40;94.40;;;;;;5027980;28;20029;-82
2023/06/08 11:32:25;;;;;;;1999.90;999.90;;;33.80;94.10;;;;;;5027823;28;20456;-82
2023/06/08 11:34:51;;;;;;;1999.90;999.90;;;34.80;94.00;;;;;;5029963;28;20029;-83
2023/06/08 11:37:17;;;;;;;1999.90;999.90;;;33.60;92.40;;;;;;5030557;28;20038;-83
2023/06/08 11:39:47;;;;;;;1999.90;999.90;;;33.50;92.90;;;;;;5023253;28;20124;-81
2023/06/08 11:42:13;;;;;;;1999.90;999.90;;;33.60;94.30;;;;;;5033635;28;20029;-83
2023/06/08 11:44:39;;;;;;;1999.90;999.90;;;33.70;92.70;;;;;;5028073;28;20120;-82
2023/06/08 11:47:06;;;;;;;1999.90;999.90;;;33.40;92.60;;;;;;5030091;28;20508;-85
2023/06/08 11:49:54;;;;;;;1999.90;999.90;;;33.70;93.10;;;;;;5029204;28;20037;-84
2023/06/08 11:52:27;;;;;;;1999.90;999.90;;;33.40;92.20;;;;;;5030726;28;20463;-84
2023/06/08 11:55:01;;;;;;;1999.90;999.90;;;32.70;92.80;;;;;;5028093;28;20065;-83
2023/06/08 11:57:49;;;;;;;1999.90;999.90;;;32.90;93.00;;;;;;5030074;28;20013;-76
2023/06/08 12:00:20;;;;;;;1999.90;999.90;;;32.90;93.10;;;;;;5017831;28;20431;-80
2023/06/08 12:02:48;;;;;;;1999.90;999.90;;;32.40;93.50;;;;;;5023948;28;20024;-80